sensor_id;sensor_type;location;lat;lon;timestamp;P1;durP1;ratioP1;P2;durP2;ratioP2
24743;SDS011;12844;52.110;5.548;2023-02-15T00:01:32;16.42;;;10.13;;
24743;SDS011;12844;52.110;5.548;2023-02-15T00:03:58;15.32;;;9.70;;
24743;SDS011;12844;52.110;5.548;2023-02-15T00:06:24;15.57;;;9.80;;
24743;SDS011;12844;52.110;5.548;2023-02-15T00:08:50;14.45;;;9.65;;
24743;SDS011;12844;52.110;5.548;2023-02-15T00:11:16;17.98;;;10.43;;
24743;SDS011;12844;52.110;5.548;2023-02-15T00:14:01;18.23;;;10.32;;
24743;SDS011;12844;52.110;5.548;2023-02-15T00:16:28;25.02;;;13.52;;
24743;SDS011;12844;52.110;5.548;2023-02-15T00:18:53;24.92;;;14.68;;
24743;SDS011;12844;52.110;5.548;2023-02-15T00:21:18;22.67;;;13.52;;
24743;SDS011;12844;52.110;5.548;2023-02-15T00:23:44;20.90;;;12.43;;
24743;SDS011;12844;52.110;5.548;2023-02-15T00:26:10;19.45;;;11.85;;
24743;SDS011;12844;52.110;5.548;2023-02-15T00:28:37;18.90;;;12.45;;
24743;SDS011;12844;52.110;5.548;2023-02-15T00:31:12;19.02;;;11.98;;
24743;SDS011;12844;52.110;5.548;2023-02-15T00:33:38;19.55;;;12.10;;
24743;SDS011;12844;52.110;5.548;2023-02-15T00:36:05;20.80;;;11.90;;
24743;SDS011;12844;52.110;5.548;2023-02-15T00:38:32;19.65;;;12.63;;
24743;SDS011;12844;52.110;5.548;2023-02-15T00:40:58;19.63;;;12.82;;
24743;SDS011;12844;52.110;5.548;2023-02-15T00:43:26;18.75;;;12.52;;
24743;SDS011;12844;52.110;5.548;2023-02-15T00:45:52;19.60;;;12.50;;
24743;SDS011;12844;52.110;5.548;2023-02-15T00:48:18;19.05;;;12.18;;
24743;SDS011;12844;52.110;5.548;2023-02-15T00:50:45;21.20;;;13.13;;
24743;SDS011;12844;52.110;5.548;2023-02-15T00:53:11;18.23;;;12.27;;
24743;SDS011;12844;52.110;5.548;2023-02-15T00:55:37;18.98;;;12.68;;
24743;SDS011;12844;52.110;5.548;2023-02-15T00:58:04;19.90;;;12.18;;
24743;SDS011;12844;52.110;5.548;2023-02-15T01:00:30;17.70;;;12.35;;
24743;SDS011;12844;52.110;5.548;2023-02-15T01:02:56;18.92;;;12.25;;
24743;SDS011;12844;52.110;5.548;2023-02-15T01:05:21;22.63;;;12.98;;
24743;SDS011;12844;52.110;5.548;2023-02-15T01:07:47;18.27;;;13.00;;
24743;SDS011;12844;52.110;5.548;2023-02-15T01:10:12;19.00;;;12.98;;
24743;SDS011;12844;52.110;5.548;2023-02-15T01:12:38;19.20;;;13.18;;
24743;SDS011;12844;52.110;5.548;2023-02-15T01:15:03;17.50;;;12.35;;
24743;SDS011;12844;52.110;5.548;2023-02-15T01:17:30;18.85;;;12.88;;
24743;SDS011;12844;52.110;5.548;2023-02-15T01:19:56;19.38;;;12.88;;
24743;SDS011;12844;52.110;5.548;2023-02-15T01:22:22;17.15;;;12.63;;
24743;SDS011;12844;52.110;5.548;2023-02-15T01:24:50;16.58;;;12.32;;
24743;SDS011;12844;52.110;5.548;2023-02-15T01:27:16;19.52;;;12.85;;
24743;SDS011;12844;52.110;5.548;2023-02-15T01:29:42;16.48;;;12.15;;
24743;SDS011;12844;52.110;5.548;2023-02-15T01:32:07;18.17;;;12.30;;
24743;SDS011;12844;52.110;5.548;2023-02-15T01:34:33;16.85;;;12.18;;
24743;SDS011;12844;52.110;5.548;2023-02-15T01:36:58;18.48;;;12.40;;
24743;SDS011;12844;52.110;5.548;2023-02-15T01:39:24;18.33;;;12.55;;
24743;SDS011;12844;52.110;5.548;2023-02-15T01:41:50;16.67;;;11.63;;
24743;SDS011;12844;52.110;5.548;2023-02-15T01:47:06;19.05;;;12.07;;
24743;SDS011;12844;52.110;5.548;2023-02-15T01:49:33;17.15;;;12.23;;
24743;SDS011;12844;52.110;5.548;2023-02-15T01:51:59;15.77;;;12.02;;
24743;SDS011;12844;52.110;5.548;2023-02-15T01:54:25;17.38;;;12.32;;
24743;SDS011;12844;52.110;5.548;2023-02-15T01:56:54;17.13;;;11.82;;
24743;SDS011;12844;52.110;5.548;2023-02-15T01:59:25;19.40;;;12.88;;
24743;SDS011;12844;52.110;5.548;2023-02-15T02:01:52;16.30;;;12.02;;
24743;SDS011;12844;52.110;5.548;2023-02-15T02:04:41;15.15;;;11.82;;
24743;SDS011;12844;52.110;5.548;2023-02-15T02:07:13;17.80;;;12.65;;
24743;SDS011;12844;52.110;5.548;2023-02-15T02:09:41;17.20;;;12.68;;
24743;SDS011;12844;52.110;5.548;2023-02-15T02:12:07;17.40;;;11.98;;
24743;SDS011;12844;52.110;5.548;2023-02-15T02:14:33;15.25;;;11.98;;
24743;SDS011;12844;52.110;5.548;2023-02-15T02:17:14;16.13;;;11.98;;
24743;SDS011;12844;52.110;5.548;2023-02-15T02:25:30;14.38;;;11.45;;
24743;SDS011;12844;52.110;5.548;2023-02-15T02:28:15;16.40;;;12.18;;
24743;SDS011;12844;52.110;5.548;2023-02-15T02:42:15;15.05;;;11.50;;
24743;SDS011;12844;52.110;5.548;2023-02-15T02:47:14;16.23;;;11.75;;
24743;SDS011;12844;52.110;5.548;2023-02-15T02:50:02;15.00;;;11.43;;
24743;SDS011;12844;52.110;5.548;2023-02-15T02:52:51;14.80;;;11.38;;
24743;SDS011;12844;52.110;5.548;2023-02-15T02:55:23;15.60;;;11.98;;
24743;SDS011;12844;52.110;5.548;2023-02-15T03:03:23;13.68;;;10.95;;
24743;SDS011;12844;52.110;5.548;2023-02-15T03:05:50;14.43;;;10.85;;
24743;SDS011;12844;52.110;5.548;2023-02-15T03:08:19;15.40;;;11.65;;
24743;SDS011;12844;52.110;5.548;2023-02-15T03:10:48;15.13;;;11.45;;
24743;SDS011;12844;52.110;5.548;2023-02-15T03:13:18;14.00;;;11.05;;
24743;SDS011;12844;52.110;5.548;2023-02-15T03:15:44;14.52;;;10.77;;
24743;SDS011;12844;52.110;5.548;2023-02-15T03:18:33;13.38;;;10.48;;
24743;SDS011;12844;52.110;5.548;2023-02-15T03:21:01;13.98;;;11.38;;
24743;SDS011;12844;52.110;5.548;2023-02-15T03:23:28;13.77;;;10.82;;
24743;SDS011;12844;52.110;5.548;2023-02-15T03:26:04;12.85;;;10.68;;
24743;SDS011;12844;52.110;5.548;2023-02-15T03:28:33;14.20;;;11.13;;
24743;SDS011;12844;52.110;5.548;2023-02-15T03:31:07;13.88;;;10.32;;
24743;SDS011;12844;52.110;5.548;2023-02-15T03:33:34;12.98;;;10.10;;
24743;SDS011;12844;52.110;5.548;2023-02-15T03:36:08;13.57;;;10.75;;
24743;SDS011;12844;52.110;5.548;2023-02-15T03:39:02;11.55;;;9.70;;
24743;SDS011;12844;52.110;5.548;2023-02-15T03:41:58;13.80;;;11.13;;
24743;SDS011;12844;52.110;5.548;2023-02-15T03:44:32;11.80;;;10.02;;
24743;SDS011;12844;52.110;5.548;2023-02-15T03:47:08;12.60;;;10.38;;
24743;SDS011;12844;52.110;5.548;2023-02-15T03:49:49;12.48;;;9.98;;
24743;SDS011;12844;52.110;5.548;2023-02-15T03:52:25;13.18;;;9.93;;
24743;SDS011;12844;52.110;5.548;2023-02-15T03:54:52;12.77;;;10.35;;
24743;SDS011;12844;52.110;5.548;2023-02-15T04:00:05;11.75;;;9.60;;
24743;SDS011;12844;52.110;5.548;2023-02-15T04:05:32;11.80;;;9.80;;
24743;SDS011;12844;52.110;5.548;2023-02-15T04:07:58;12.88;;;10.43;;
24743;SDS011;12844;52.110;5.548;2023-02-15T04:10:23;13.45;;;9.68;;
24743;SDS011;12844;52.110;5.548;2023-02-15T04:13:07;13.00;;;10.32;;
24743;SDS011;12844;52.110;5.548;2023-02-15T04:15:33;12.23;;;9.85;;
24743;SDS011;12844;52.110;5.548;2023-02-15T04:18:17;12.45;;;9.68;;
24743;SDS011;12844;52.110;5.548;2023-02-15T04:20:43;12.73;;;9.63;;
24743;SDS011;12844;52.110;5.548;2023-02-15T04:23:28;11.68;;;9.80;;
24743;SDS011;12844;52.110;5.548;2023-02-15T04:26:12;11.30;;;9.10;;
24743;SDS011;12844;52.110;5.548;2023-02-15T04:28:38;12.68;;;9.57;;
24743;SDS011;12844;52.110;5.548;2023-02-15T04:31:03;12.02;;;9.45;;
24743;SDS011;12844;52.110;5.548;2023-02-15T04:33:29;11.35;;;8.82;;
24743;SDS011;12844;52.110;5.548;2023-02-15T04:35:54;11.43;;;9.00;;
24743;SDS011;12844;52.110;5.548;2023-02-15T04:38:21;11.23;;;9.60;;
24743;SDS011;12844;52.110;5.548;2023-02-15T04:40:50;11.05;;;9.40;;
24743;SDS011;12844;52.110;5.548;2023-02-15T04:43:17;11.60;;;9.48;;
24743;SDS011;12844;52.110;5.548;2023-02-15T04:45:49;10.55;;;9.35;;
24743;SDS011;12844;52.110;5.548;2023-02-15T04:48:16;11.68;;;8.85;;
24743;SDS011;12844;52.110;5.548;2023-02-15T04:50:42;12.50;;;9.57;;
24743;SDS011;12844;52.110;5.548;2023-02-15T04:53:08;10.57;;;8.95;;
24743;SDS011;12844;52.110;5.548;2023-02-15T04:55:34;12.13;;;10.02;;
24743;SDS011;12844;52.110;5.548;2023-02-15T04:57:59;10.32;;;9.18;;
24743;SDS011;12844;52.110;5.548;2023-02-15T05:00:25;10.52;;;9.07;;
24743;SDS011;12844;52.110;5.548;2023-02-15T05:02:50;10.80;;;9.10;;
24743;SDS011;12844;52.110;5.548;2023-02-15T05:05:16;11.88;;;9.32;;
24743;SDS011;12844;52.110;5.548;2023-02-15T05:07:42;10.52;;;8.60;;
24743;SDS011;12844;52.110;5.548;2023-02-15T05:10:07;12.45;;;9.65;;
24743;SDS011;12844;52.110;5.548;2023-02-15T05:12:33;11.38;;;9.30;;
24743;SDS011;12844;52.110;5.548;2023-02-15T05:14:58;11.48;;;9.00;;
24743;SDS011;12844;52.110;5.548;2023-02-15T05:17:24;11.50;;;9.27;;
24743;SDS011;12844;52.110;5.548;2023-02-15T05:19:49;11.43;;;9.35;;
24743;SDS011;12844;52.110;5.548;2023-02-15T05:22:15;11.32;;;8.88;;
24743;SDS011;12844;52.110;5.548;2023-02-15T05:24:41;10.75;;;8.63;;
24743;SDS011;12844;52.110;5.548;2023-02-15T05:27:24;11.63;;;8.95;;
24743;SDS011;12844;52.110;5.548;2023-02-15T05:30:09;11.35;;;9.10;;
24743;SDS011;12844;52.110;5.548;2023-02-15T05:32:36;10.18;;;8.55;;
24743;SDS011;12844;52.110;5.548;2023-02-15T05:35:03;11.57;;;9.18;;
24743;SDS011;12844;52.110;5.548;2023-02-15T05:37:29;11.77;;;8.75;;
24743;SDS011;12844;52.110;5.548;2023-02-15T05:39:55;11.45;;;8.60;;
24743;SDS011;12844;52.110;5.548;2023-02-15T05:42:20;11.55;;;9.23;;
24743;SDS011;12844;52.110;5.548;2023-02-15T05:44:46;10.55;;;8.93;;
24743;SDS011;12844;52.110;5.548;2023-02-15T05:47:11;10.27;;;8.60;;
24743;SDS011;12844;52.110;5.548;2023-02-15T05:49:37;11.63;;;9.20;;
24743;SDS011;12844;52.110;5.548;2023-02-15T05:52:03;10.40;;;8.65;;
24743;SDS011;12844;52.110;5.548;2023-02-15T05:54:28;11.23;;;8.63;;
24743;SDS011;12844;52.110;5.548;2023-02-15T05:56:54;10.82;;;9.15;;
24743;SDS011;12844;52.110;5.548;2023-02-15T05:59:20;9.98;;;8.63;;
24743;SDS011;12844;52.110;5.548;2023-02-15T06:01:45;9.48;;;8.48;;
24743;SDS011;12844;52.110;5.548;2023-02-15T06:04:12;11.07;;;8.70;;
24743;SDS011;12844;52.110;5.548;2023-02-15T06:06:37;10.07;;;8.57;;
24743;SDS011;12844;52.110;5.548;2023-02-15T06:09:03;10.77;;;8.63;;
24743;SDS011;12844;52.110;5.548;2023-02-15T06:11:28;10.55;;;8.60;;
24743;SDS011;12844;52.110;5.548;2023-02-15T06:13:54;9.95;;;8.43;;
24743;SDS011;12844;52.110;5.548;2023-02-15T06:16:19;9.05;;;8.13;;
24743;SDS011;12844;52.110;5.548;2023-02-15T06:18:45;9.45;;;8.00;;
24743;SDS011;12844;52.110;5.548;2023-02-15T06:21:11;10.82;;;8.25;;
24743;SDS011;12844;52.110;5.548;2023-02-15T06:23:36;10.18;;;8.68;;
24743;SDS011;12844;52.110;5.548;2023-02-15T06:26:02;9.98;;;7.95;;
24743;SDS011;12844;52.110;5.548;2023-02-15T06:28:28;10.18;;;7.93;;
24743;SDS011;12844;52.110;5.548;2023-02-15T06:30:54;10.40;;;8.30;;
24743;SDS011;12844;52.110;5.548;2023-02-15T06:33:19;9.73;;;8.45;;
24743;SDS011;12844;52.110;5.548;2023-02-15T06:35:45;9.10;;;7.72;;
24743;SDS011;12844;52.110;5.548;2023-02-15T06:38:11;9.93;;;7.68;;
24743;SDS011;12844;52.110;5.548;2023-02-15T06:40:36;9.65;;;8.48;;
24743;SDS011;12844;52.110;5.548;2023-02-15T06:43:02;10.00;;;8.07;;
24743;SDS011;12844;52.110;5.548;2023-02-15T06:45:27;11.73;;;8.20;;
24743;SDS011;12844;52.110;5.548;2023-02-15T06:47:53;10.30;;;8.43;;
24743;SDS011;12844;52.110;5.548;2023-02-15T06:50:19;10.48;;;7.85;;
24743;SDS011;12844;52.110;5.548;2023-02-15T06:52:44;9.48;;;8.25;;
24743;SDS011;12844;52.110;5.548;2023-02-15T06:55:10;11.43;;;8.13;;
24743;SDS011;12844;52.110;5.548;2023-02-15T06:57:35;10.82;;;8.65;;
24743;SDS011;12844;52.110;5.548;2023-02-15T07:00:01;9.45;;;7.80;;
24743;SDS011;12844;52.110;5.548;2023-02-15T07:02:29;9.75;;;7.90;;
24743;SDS011;12844;52.110;5.548;2023-02-15T07:04:56;10.65;;;8.50;;
24743;SDS011;12844;52.110;5.548;2023-02-15T07:07:21;10.00;;;8.38;;
24743;SDS011;12844;52.110;5.548;2023-02-15T07:09:47;9.32;;;7.82;;
24743;SDS011;12844;52.110;5.548;2023-02-15T07:12:13;10.60;;;8.43;;
24743;SDS011;12844;52.110;5.548;2023-02-15T07:14:57;9.55;;;7.93;;
24743;SDS011;12844;52.110;5.548;2023-02-15T07:17:23;9.43;;;7.75;;
24743;SDS011;12844;52.110;5.548;2023-02-15T07:19:48;9.52;;;8.07;;
24743;SDS011;12844;52.110;5.548;2023-02-15T07:22:14;9.18;;;7.88;;
24743;SDS011;12844;52.110;5.548;2023-02-15T07:24:40;11.07;;;8.65;;
24743;SDS011;12844;52.110;5.548;2023-02-15T07:27:06;10.48;;;8.45;;
24743;SDS011;12844;52.110;5.548;2023-02-15T07:29:32;10.52;;;8.35;;
24743;SDS011;12844;52.110;5.548;2023-02-15T07:31:58;9.63;;;8.05;;
24743;SDS011;12844;52.110;5.548;2023-02-15T07:34:23;9.68;;;7.80;;
24743;SDS011;12844;52.110;5.548;2023-02-15T07:36:50;9.35;;;8.35;;
24743;SDS011;12844;52.110;5.548;2023-02-15T07:39:16;9.10;;;7.85;;
24743;SDS011;12844;52.110;5.548;2023-02-15T07:41:42;9.88;;;8.23;;
24743;SDS011;12844;52.110;5.548;2023-02-15T07:44:10;11.45;;;8.90;;
24743;SDS011;12844;52.110;5.548;2023-02-15T07:46:38;9.77;;;8.35;;
24743;SDS011;12844;52.110;5.548;2023-02-15T07:49:05;13.25;;;9.38;;
24743;SDS011;12844;52.110;5.548;2023-02-15T07:51:30;9.43;;;8.43;;
24743;SDS011;12844;52.110;5.548;2023-02-15T07:53:56;9.48;;;8.02;;
24743;SDS011;12844;52.110;5.548;2023-02-15T07:56:21;9.75;;;8.15;;
24743;SDS011;12844;52.110;5.548;2023-02-15T07:58:47;10.35;;;8.48;;
24743;SDS011;12844;52.110;5.548;2023-02-15T08:01:16;11.23;;;8.48;;
24743;SDS011;12844;52.110;5.548;2023-02-15T08:03:47;9.07;;;7.27;;
24743;SDS011;12844;52.110;5.548;2023-02-15T08:06:13;9.65;;;7.65;;
24743;SDS011;12844;52.110;5.548;2023-02-15T08:08:40;9.80;;;7.70;;
24743;SDS011;12844;52.110;5.548;2023-02-15T08:22:00;8.73;;;6.85;;
24743;SDS011;12844;52.110;5.548;2023-02-15T08:24:29;8.82;;;7.68;;
24743;SDS011;12844;52.110;5.548;2023-02-15T08:26:56;11.50;;;7.70;;
24743;SDS011;12844;52.110;5.548;2023-02-15T08:29:23;9.43;;;7.28;;
24743;SDS011;12844;52.110;5.548;2023-02-15T08:31:54;10.30;;;6.90;;
24743;SDS011;12844;52.110;5.548;2023-02-15T08:34:23;9.27;;;6.55;;
24743;SDS011;12844;52.110;5.548;2023-02-15T08:36:49;11.48;;;7.38;;
24743;SDS011;12844;52.110;5.548;2023-02-15T08:39:16;15.60;;;7.93;;
24743;SDS011;12844;52.110;5.548;2023-02-15T08:41:42;12.38;;;8.40;;
24743;SDS011;12844;52.110;5.548;2023-02-15T08:44:09;11.02;;;7.80;;
24743;SDS011;12844;52.110;5.548;2023-02-15T08:46:36;8.85;;;7.20;;
24743;SDS011;12844;52.110;5.548;2023-02-15T08:49:04;8.75;;;7.20;;
24743;SDS011;12844;52.110;5.548;2023-02-15T08:51:31;8.85;;;6.78;;
24743;SDS011;12844;52.110;5.548;2023-02-15T08:53:59;9.05;;;7.32;;
24743;SDS011;12844;52.110;5.548;2023-02-15T08:56:28;10.98;;;6.97;;
24743;SDS011;12844;52.110;5.548;2023-02-15T08:58:56;9.07;;;7.07;;
24743;SDS011;12844;52.110;5.548;2023-02-15T09:01:23;12.00;;;7.25;;
24743;SDS011;12844;52.110;5.548;2023-02-15T09:03:56;9.82;;;6.10;;
24743;SDS011;12844;52.110;5.548;2023-02-15T09:06:26;8.30;;;6.97;;
24743;SDS011;12844;52.110;5.548;2023-02-15T09:08:52;7.47;;;6.57;;
24743;SDS011;12844;52.110;5.548;2023-02-15T09:11:20;8.73;;;6.78;;
24743;SDS011;12844;52.110;5.548;2023-02-15T09:13:52;9.05;;;6.55;;
24743;SDS011;12844;52.110;5.548;2023-02-15T09:16:20;14.17;;;6.60;;
24743;SDS011;12844;52.110;5.548;2023-02-15T09:18:47;8.30;;;6.57;;
24743;SDS011;12844;52.110;5.548;2023-02-15T09:21:15;8.13;;;6.28;;
24743;SDS011;12844;52.110;5.548;2023-02-15T09:23:43;9.25;;;6.30;;
24743;SDS011;12844;52.110;5.548;2023-02-15T09:26:14;9.40;;;6.38;;
24743;SDS011;12844;52.110;5.548;2023-02-15T09:28:41;7.72;;;6.65;;
24743;SDS011;12844;52.110;5.548;2023-02-15T09:31:12;7.63;;;6.35;;
24743;SDS011;12844;52.110;5.548;2023-02-15T09:33:42;8.10;;;6.55;;
24743;SDS011;12844;52.110;5.548;2023-02-15T09:36:22;9.38;;;6.90;;
24743;SDS011;12844;52.110;5.548;2023-02-15T09:38:52;8.98;;;6.63;;
24743;SDS011;12844;52.110;5.548;2023-02-15T09:55:52;7.93;;;6.03;;
24743;SDS011;12844;52.110;5.548;2023-02-15T10:01:15;8.20;;;5.95;;
24743;SDS011;12844;52.110;5.548;2023-02-15T10:15:21;8.55;;;6.38;;
24743;SDS011;12844;52.110;5.548;2023-02-15T10:20:40;8.27;;;6.45;;
24743;SDS011;12844;52.110;5.548;2023-02-15T10:23:23;11.18;;;6.68;;
24743;SDS011;12844;52.110;5.548;2023-02-15T10:28:46;10.30;;;6.20;;
24743;SDS011;12844;52.110;5.548;2023-02-15T10:34:03;8.10;;;6.00;;
24743;SDS011;12844;52.110;5.548;2023-02-15T10:37:28;8.57;;;6.15;;
24743;SDS011;12844;52.110;5.548;2023-02-15T10:48:27;9.50;;;6.43;;
24743;SDS011;12844;52.110;5.548;2023-02-15T10:51:05;8.10;;;6.07;;
24743;SDS011;12844;52.110;5.548;2023-02-15T10:54:12;9.20;;;6.40;;
24743;SDS011;12844;52.110;5.548;2023-02-15T10:57:00;12.07;;;6.60;;
24743;SDS011;12844;52.110;5.548;2023-02-15T13:17:25;9.30;;;6.72;;
24743;SDS011;12844;52.110;5.548;2023-02-15T13:20:04;10.07;;;6.95;;
24743;SDS011;12844;52.110;5.548;2023-02-15T13:22:41;10.15;;;6.90;;
24743;SDS011;12844;52.110;5.548;2023-02-15T13:25:24;7.80;;;6.50;;
24743;SDS011;12844;52.110;5.548;2023-02-15T13:27:54;9.45;;;6.63;;
24743;SDS011;12844;52.110;5.548;2023-02-15T13:32:52;7.85;;;6.97;;
24743;SDS011;12844;52.110;5.548;2023-02-15T14:40:05;10.70;;;7.80;;
24743;SDS011;12844;52.110;5.548;2023-02-15T14:49:25;11.63;;;7.88;;
24743;SDS011;12844;52.110;5.548;2023-02-15T14:51:55;10.23;;;7.85;;
24743;SDS011;12844;52.110;5.548;2023-02-15T14:59:27;12.85;;;8.13;;
24743;SDS011;12844;52.110;5.548;2023-02-15T15:02:31;9.77;;;7.85;;
24743;SDS011;12844;52.110;5.548;2023-02-15T15:07:57;10.25;;;8.15;;
24743;SDS011;12844;52.110;5.548;2023-02-15T15:15:56;12.02;;;8.80;;
24743;SDS011;12844;52.110;5.548;2023-02-15T15:18:42;10.18;;;8.38;;
24743;SDS011;12844;52.110;5.548;2023-02-15T15:21:50;12.57;;;9.50;;
24743;SDS011;12844;52.110;5.548;2023-02-15T15:44:19;16.85;;;9.13;;
24743;SDS011;12844;52.110;5.548;2023-02-15T15:50:11;16.27;;;9.73;;
24743;SDS011;12844;52.110;5.548;2023-02-15T15:52:38;15.13;;;9.23;;
24743;SDS011;12844;52.110;5.548;2023-02-15T15:55:13;17.75;;;9.57;;
24743;SDS011;12844;52.110;5.548;2023-02-15T15:57:43;16.05;;;9.27;;
24743;SDS011;12844;52.110;5.548;2023-02-15T16:02:57;15.73;;;9.45;;
24743;SDS011;12844;52.110;5.548;2023-02-15T16:05:23;11.73;;;8.88;;
24743;SDS011;12844;52.110;5.548;2023-02-15T16:07:48;14.20;;;9.10;;
24743;SDS011;12844;52.110;5.548;2023-02-15T16:10:25;13.30;;;9.48;;
24743;SDS011;12844;52.110;5.548;2023-02-15T16:12:52;12.45;;;8.95;;
24743;SDS011;12844;52.110;5.548;2023-02-15T16:15:20;12.98;;;8.55;;
24743;SDS011;12844;52.110;5.548;2023-02-15T16:17:50;11.35;;;8.55;;
24743;SDS011;12844;52.110;5.548;2023-02-15T16:20:29;15.82;;;9.00;;
24743;SDS011;12844;52.110;5.548;2023-02-15T16:28:43;12.23;;;8.90;;
24743;SDS011;12844;52.110;5.548;2023-02-15T16:31:17;13.88;;;9.27;;
24743;SDS011;12844;52.110;5.548;2023-02-15T16:33:43;14.38;;;8.88;;
24743;SDS011;12844;52.110;5.548;2023-02-15T16:36:19;10.60;;;8.05;;
24743;SDS011;12844;52.110;5.548;2023-02-15T16:41:20;12.93;;;8.75;;
24743;SDS011;12844;52.110;5.548;2023-02-15T16:43:50;11.30;;;9.00;;
24743;SDS011;12844;52.110;5.548;2023-02-15T16:48:49;12.30;;;8.65;;
24743;SDS011;12844;52.110;5.548;2023-02-15T16:51:21;13.13;;;8.77;;
24743;SDS011;12844;52.110;5.548;2023-02-15T16:53:48;14.73;;;9.32;;
24743;SDS011;12844;52.110;5.548;2023-02-15T16:56:14;13.13;;;8.88;;
24743;SDS011;12844;52.110;5.548;2023-02-15T16:58:43;12.32;;;9.30;;
24743;SDS011;12844;52.110;5.548;2023-02-15T17:01:11;11.40;;;9.27;;
24743;SDS011;12844;52.110;5.548;2023-02-15T17:03:39;12.30;;;9.30;;
24743;SDS011;12844;52.110;5.548;2023-02-15T17:06:23;11.82;;;8.60;;
24743;SDS011;12844;52.110;5.548;2023-02-15T17:08:51;10.50;;;8.77;;
24743;SDS011;12844;52.110;5.548;2023-02-15T17:11:18;12.98;;;9.57;;
24743;SDS011;12844;52.110;5.548;2023-02-15T17:16:30;12.95;;;9.15;;
24743;SDS011;12844;52.110;5.548;2023-02-15T17:19:02;13.45;;;9.18;;
24743;SDS011;12844;52.110;5.548;2023-02-15T17:21:41;11.52;;;8.75;;
24743;SDS011;12844;52.110;5.548;2023-02-15T17:24:16;10.25;;;8.48;;
24743;SDS011;12844;52.110;5.548;2023-02-15T17:26:50;11.70;;;8.57;;
24743;SDS011;12844;52.110;5.548;2023-02-15T17:29:37;12.32;;;8.95;;
24743;SDS011;12844;52.110;5.548;2023-02-15T17:32:18;12.25;;;9.05;;
24743;SDS011;12844;52.110;5.548;2023-02-15T17:40:06;12.23;;;9.40;;
24743;SDS011;12844;52.110;5.548;2023-02-15T17:42:49;11.15;;;8.93;;
24743;SDS011;12844;52.110;5.548;2023-02-15T17:45:15;11.27;;;9.25;;
24743;SDS011;12844;52.110;5.548;2023-02-15T17:47:41;11.93;;;9.40;;
24743;SDS011;12844;52.110;5.548;2023-02-15T17:50:10;13.75;;;9.60;;
24743;SDS011;12844;52.110;5.548;2023-02-15T17:52:47;11.93;;;9.48;;
24743;SDS011;12844;52.110;5.548;2023-02-15T17:55:14;13.10;;;9.77;;
24743;SDS011;12844;52.110;5.548;2023-02-15T17:58:05;12.75;;;9.35;;
24743;SDS011;12844;52.110;5.548;2023-02-15T18:00:34;11.90;;;9.55;;
24743;SDS011;12844;52.110;5.548;2023-02-15T18:03:21;12.13;;;9.75;;
24743;SDS011;12844;52.110;5.548;2023-02-15T18:06:05;13.70;;;10.20;;
24743;SDS011;12844;52.110;5.548;2023-02-15T18:08:50;11.88;;;9.45;;
24743;SDS011;12844;52.110;5.548;2023-02-15T18:11:33;14.07;;;10.25;;
24743;SDS011;12844;52.110;5.548;2023-02-15T18:14:00;12.75;;;9.73;;
24743;SDS011;12844;52.110;5.548;2023-02-15T18:16:29;12.75;;;10.10;;
24743;SDS011;12844;52.110;5.548;2023-02-15T18:18:57;13.00;;;9.55;;
24743;SDS011;12844;52.110;5.548;2023-02-15T18:21:23;13.48;;;10.13;;
24743;SDS011;12844;52.110;5.548;2023-02-15T18:23:49;10.45;;;9.18;;
24743;SDS011;12844;52.110;5.548;2023-02-15T18:26:19;13.93;;;10.60;;
24743;SDS011;12844;52.110;5.548;2023-02-15T18:28:46;11.15;;;9.73;;
24743;SDS011;12844;52.110;5.548;2023-02-15T18:31:12;12.55;;;9.65;;
24743;SDS011;12844;52.110;5.548;2023-02-15T18:33:48;12.80;;;10.15;;
24743;SDS011;12844;52.110;5.548;2023-02-15T18:36:21;11.65;;;9.52;;
24743;SDS011;12844;52.110;5.548;2023-02-15T18:38:52;12.18;;;9.63;;
24743;SDS011;12844;52.110;5.548;2023-02-15T18:41:19;12.52;;;10.20;;
24743;SDS011;12844;52.110;5.548;2023-02-15T18:43:45;11.45;;;9.75;;
24743;SDS011;12844;52.110;5.548;2023-02-15T18:46:13;12.80;;;10.07;;
24743;SDS011;12844;52.110;5.548;2023-02-15T18:48:39;12.73;;;10.10;;
24743;SDS011;12844;52.110;5.548;2023-02-15T18:51:05;13.30;;;9.77;;
24743;SDS011;12844;52.110;5.548;2023-02-15T18:53:46;11.65;;;9.60;;
24743;SDS011;12844;52.110;5.548;2023-02-15T18:56:14;13.00;;;10.25;;
24743;SDS011;12844;52.110;5.548;2023-02-15T18:58:41;13.35;;;9.93;;
24743;SDS011;12844;52.110;5.548;2023-02-15T19:01:11;13.65;;;10.93;;
24743;SDS011;12844;52.110;5.548;2023-02-15T19:03:45;14.55;;;10.27;;
24743;SDS011;12844;52.110;5.548;2023-02-15T19:06:12;13.73;;;10.50;;
24743;SDS011;12844;52.110;5.548;2023-02-15T19:08:39;11.52;;;10.30;;
24743;SDS011;12844;52.110;5.548;2023-02-15T19:11:11;12.68;;;10.50;;
24743;SDS011;12844;52.110;5.548;2023-02-15T19:13:40;14.85;;;11.25;;
24743;SDS011;12844;52.110;5.548;2023-02-15T19:16:05;12.88;;;10.18;;
24743;SDS011;12844;52.110;5.548;2023-02-15T19:18:32;13.10;;;10.70;;
24743;SDS011;12844;52.110;5.548;2023-02-15T19:20:58;15.05;;;11.90;;
24743;SDS011;12844;52.110;5.548;2023-02-15T19:23:23;13.45;;;10.65;;
24743;SDS011;12844;52.110;5.548;2023-02-15T19:25:50;12.70;;;10.32;;
24743;SDS011;12844;52.110;5.548;2023-02-15T19:28:19;13.38;;;10.63;;
24743;SDS011;12844;52.110;5.548;2023-02-15T19:30:50;13.35;;;10.95;;
24743;SDS011;12844;52.110;5.548;2023-02-15T19:33:16;12.95;;;10.88;;
24743;SDS011;12844;52.110;5.548;2023-02-15T19:35:43;12.93;;;10.40;;
24743;SDS011;12844;52.110;5.548;2023-02-15T19:38:17;11.38;;;10.20;;
24743;SDS011;12844;52.110;5.548;2023-02-15T19:40:45;14.35;;;10.45;;
24743;SDS011;12844;52.110;5.548;2023-02-15T19:43:19;13.50;;;10.77;;
24743;SDS011;12844;52.110;5.548;2023-02-15T19:45:47;13.85;;;10.75;;
24743;SDS011;12844;52.110;5.548;2023-02-15T19:48:16;13.73;;;10.93;;
24743;SDS011;12844;52.110;5.548;2023-02-15T19:50:42;14.27;;;10.90;;
24743;SDS011;12844;52.110;5.548;2023-02-15T19:53:14;15.13;;;11.70;;
24743;SDS011;12844;52.110;5.548;2023-02-15T19:55:47;13.82;;;11.55;;
24743;SDS011;12844;52.110;5.548;2023-02-15T19:58:13;13.98;;;11.38;;
24743;SDS011;12844;52.110;5.548;2023-02-15T20:00:39;13.75;;;11.02;;
24743;SDS011;12844;52.110;5.548;2023-02-15T20:03:04;14.07;;;11.27;;
24743;SDS011;12844;52.110;5.548;2023-02-15T20:05:30;15.23;;;10.73;;
24743;SDS011;12844;52.110;5.548;2023-02-15T20:07:58;13.60;;;11.32;;
24743;SDS011;12844;52.110;5.548;2023-02-15T20:10:26;13.50;;;11.13;;
24743;SDS011;12844;52.110;5.548;2023-02-15T20:12:53;15.07;;;11.48;;
24743;SDS011;12844;52.110;5.548;2023-02-15T20:15:21;14.02;;;11.82;;
24743;SDS011;12844;52.110;5.548;2023-02-15T20:17:49;15.02;;;11.20;;
24743;SDS011;12844;52.110;5.548;2023-02-15T20:20:16;13.23;;;11.43;;
24743;SDS011;12844;52.110;5.548;2023-02-15T20:22:46;14.50;;;11.55;;
24743;SDS011;12844;52.110;5.548;2023-02-15T20:25:19;13.20;;;11.38;;
24743;SDS011;12844;52.110;5.548;2023-02-15T20:27:48;13.70;;;11.25;;
24743;SDS011;12844;52.110;5.548;2023-02-15T20:30:18;14.32;;;11.80;;
24743;SDS011;12844;52.110;5.548;2023-02-15T20:32:45;14.25;;;11.80;;
24743;SDS011;12844;52.110;5.548;2023-02-15T20:35:12;13.82;;;11.43;;
24743;SDS011;12844;52.110;5.548;2023-02-15T20:37:38;14.98;;;11.93;;
24743;SDS011;12844;52.110;5.548;2023-02-15T20:40:11;15.48;;;11.80;;
24743;SDS011;12844;52.110;5.548;2023-02-15T20:42:41;15.35;;;11.85;;
24743;SDS011;12844;52.110;5.548;2023-02-15T20:45:13;14.48;;;11.43;;
24743;SDS011;12844;52.110;5.548;2023-02-15T20:47:41;13.85;;;11.65;;